createdAt,value
2017-05-29T00:01:37.593Z,6.00
2017-05-29T00:04:17.690Z,7.22
2017-05-29T00:09:46.586Z,6.92
2017-05-29T00:12:21.858Z,6.20
2017-05-29T00:14:53.925Z,6.48
2017-05-29T00:20:26.101Z,6.90
2017-05-29T00:23:00.659Z,6.84
2017-05-29T00:28:21.122Z,6.16
2017-05-29T00:31:08.337Z,5.52
2017-05-29T00:33:41.029Z,6.52
2017-05-29T00:36:12.454Z,6.56
2017-05-29T00:38:49.959Z,7.30
2017-05-29T00:41:18.457Z,6.78
2017-05-29T00:43:46.977Z,6.64
2017-05-29T00:46:15.352Z,6.52
2017-05-29T00:48:42.938Z,6.46
2017-05-29T00:51:11.353Z,7.30
2017-05-29T00:53:39.720Z,6.82
2017-05-29T00:56:08.113Z,6.68
2017-05-29T00:58:36.441Z,7.44
2017-05-29T01:01:04.854Z,7.18
2017-05-29T01:03:33.182Z,7.04
2017-05-29T01:06:01.568Z,7.70
2017-05-29T01:08:29.190Z,8.00
2017-05-29T01:10:57.553Z,7.18
2017-05-29T01:13:25.873Z,7.46
2017-05-29T01:15:54.270Z,7.80
2017-05-29T01:18:22.633Z,7.72
2017-05-29T01:20:50.997Z,8.12
2017-05-29T01:23:19.316Z,7.66
2017-05-29T01:25:47.713Z,7.14
2017-05-29T01:28:16.032Z,7.82
2017-05-29T01:30:44.388Z,7.68
2017-05-29T01:33:12.725Z,7.38
2017-05-29T01:35:41.077Z,7.56
2017-05-29T01:38:09.411Z,7.68
2017-05-29T01:40:36.981Z,7.70
2017-05-29T01:43:05.342Z,7.66
2017-05-29T01:45:33.742Z,7.26
2017-05-29T01:48:02.136Z,7.92
2017-05-29T01:50:30.496Z,7.10
2017-05-29T01:52:58.853Z,7.52
2017-05-29T01:55:27.448Z,7.96
2017-05-29T01:57:55.792Z,6.38
2017-05-29T02:00:24.141Z,7.36
2017-05-29T02:02:52.518Z,6.56
2017-05-29T02:05:20.872Z,6.78
2017-05-29T02:07:49.237Z,7.04
2017-05-29T02:10:17.563Z,7.42
2017-05-29T02:12:45.922Z,7.48
2017-05-29T02:15:14.267Z,6.58
2017-05-29T02:17:42.631Z,7.06
2017-05-29T02:20:10.981Z,6.48
2017-05-29T02:22:39.341Z,6.46
2017-05-29T02:25:07.687Z,7.50
2017-05-29T02:27:36.049Z,7.12
2017-05-29T02:30:03.604Z,7.54
2017-05-29T02:32:31.974Z,6.70
2017-05-29T02:35:00.313Z,7.82
2017-05-29T02:37:28.711Z,7.72
2017-05-29T02:39:57.072Z,6.96
2017-05-29T02:42:24.704Z,7.72
2017-05-29T02:44:53.011Z,6.54
2017-05-29T02:47:21.378Z,6.52
2017-05-29T02:49:49.708Z,6.82
2017-05-29T02:52:18.047Z,6.76
2017-05-29T02:54:46.465Z,6.58
2017-05-29T02:57:14.823Z,7.20
2017-05-29T02:59:43.164Z,7.80
2017-05-29T03:02:11.519Z,8.08
2017-05-29T03:04:39.836Z,8.80
2017-05-29T03:07:08.196Z,7.84
2017-05-29T03:09:36.529Z,7.36
2017-05-29T03:12:04.909Z,8.52
2017-05-29T03:14:33.781Z,9.68
2017-05-29T03:17:02.365Z,9.82
2017-05-29T03:19:30.703Z,8.88
2017-05-29T03:21:58.512Z,9.72
2017-05-29T03:24:26.842Z,9.50
2017-05-29T03:26:55.173Z,10.26
2017-05-29T03:29:22.821Z,9.68
2017-05-29T03:31:51.163Z,9.44
2017-05-29T03:34:18.753Z,9.82
2017-05-29T03:36:47.074Z,8.70
2017-05-29T03:39:15.447Z,10.12
2017-05-29T03:41:43.929Z,8.96
2017-05-29T03:44:11.616Z,10.22
2017-05-29T03:46:40.455Z,9.54
2017-05-29T03:49:08.901Z,8.64
2017-05-29T03:51:37.237Z,8.62
2017-05-29T03:54:04.840Z,9.14
2017-05-29T03:56:33.202Z,8.52
2017-05-29T03:59:04.694Z,8.60
2017-05-29T04:01:33.022Z,9.16
2017-05-29T04:04:00.627Z,7.68
2017-05-29T04:06:28.985Z,7.36
2017-05-29T04:08:57.347Z,7.76
2017-05-29T04:11:25.701Z,8.06
2017-05-29T04:13:54.103Z,7.28
2017-05-29T04:16:22.458Z,7.34
2017-05-29T04:18:50.817Z,7.38
2017-05-29T04:21:18.409Z,6.80
2017-05-29T04:23:46.766Z,7.78
2017-05-29T04:26:14.366Z,7.60
2017-05-29T04:28:41.990Z,6.86
2017-05-29T04:31:10.334Z,6.52
2017-05-29T04:33:38.710Z,7.54
2017-05-29T04:36:07.231Z,6.16
2017-05-29T04:38:35.606Z,6.56
2017-05-29T04:41:03.954Z,7.02
2017-05-29T04:43:31.627Z,6.64
2017-05-29T04:46:00.014Z,6.18
2017-05-29T04:48:28.454Z,6.34
2017-05-29T04:50:56.826Z,6.10
2017-05-29T04:53:25.160Z,5.90
2017-05-29T04:55:53.541Z,5.70
2017-05-29T04:58:21.944Z,5.22
2017-05-29T05:00:50.336Z,5.28
2017-05-29T05:03:18.669Z,5.48
2017-05-29T05:05:47.098Z,5.62
2017-05-29T05:08:15.434Z,5.88
2017-05-29T05:10:43.829Z,5.20
2017-05-29T05:13:11.429Z,5.92
2017-05-29T05:15:39.790Z,5.62
2017-05-29T05:18:07.375Z,5.48
2017-05-29T05:20:37.236Z,5.22
2017-05-29T05:23:05.584Z,5.18
2017-05-29T05:25:33.989Z,4.16
2017-05-29T05:28:03.234Z,4.18
2017-05-29T05:30:30.853Z,4.22
2017-05-29T05:32:58.432Z,4.34
2017-05-29T05:35:26.851Z,5.96
2017-05-29T05:37:55.199Z,4.76
2017-05-29T05:40:23.578Z,5.18
2017-05-29T05:42:51.952Z,5.20
2017-05-29T05:45:22.744Z,5.22
2017-05-29T05:47:51.115Z,4.88
2017-05-29T05:50:18.759Z,5.08
2017-05-29T05:52:46.365Z,4.92
2017-05-29T05:55:13.964Z,5.08
2017-05-29T05:57:42.339Z,5.12
2017-05-29T06:00:10.712Z,4.98
2017-05-29T06:02:38.327Z,4.18
2017-05-29T06:05:06.734Z,4.80
2017-05-29T06:07:35.077Z,4.24
2017-05-29T06:10:03.512Z,4.38
2017-05-29T06:12:31.954Z,4.42
2017-05-29T06:15:00.316Z,4.40
2017-05-29T06:17:28.801Z,4.36
2017-05-29T06:19:57.233Z,4.08
2017-05-29T06:22:25.719Z,4.34
2017-05-29T06:24:54.128Z,4.68
2017-05-29T06:27:22.524Z,4.96
2017-05-29T06:29:51.062Z,4.28
2017-05-29T06:32:31.656Z,5.28
2017-05-29T06:35:00.179Z,4.22
2017-05-29T06:37:28.797Z,4.82
2017-05-29T06:39:57.201Z,4.22
2017-05-29T06:42:25.605Z,4.10
2017-05-29T06:44:53.948Z,5.16
2017-05-29T06:47:24.210Z,4.26
2017-05-29T06:49:52.560Z,4.80
2017-05-29T06:52:20.938Z,4.34
2017-05-29T06:54:49.274Z,4.32
2017-05-29T06:57:17.695Z,4.78
2017-05-29T06:59:45.270Z,4.08
2017-05-29T07:02:13.684Z,4.60
2017-05-29T07:04:41.247Z,4.46
2017-05-29T07:07:09.655Z,4.70
2017-05-29T07:09:37.993Z,4.36
2017-05-29T07:12:06.332Z,4.50
2017-05-29T07:14:34.704Z,5.08
2017-05-29T07:17:03.069Z,4.70
2017-05-29T07:19:31.413Z,4.40
2017-05-29T07:21:59.808Z,4.56
2017-05-29T07:24:28.219Z,4.80
2017-05-29T07:26:56.618Z,4.66
2017-05-29T07:29:25.008Z,5.46
2017-05-29T07:31:52.618Z,4.74
2017-05-29T07:34:20.173Z,4.66
2017-05-29T07:36:48.615Z,4.68
2017-05-29T07:39:17.014Z,4.72
2017-05-29T07:41:45.353Z,5.04
2017-05-29T07:44:12.918Z,4.62
2017-05-29T07:46:41.685Z,4.38
2017-05-29T07:49:10.038Z,4.40
2017-05-29T07:51:38.355Z,4.70
2017-05-29T07:54:05.954Z,4.90
2017-05-29T07:56:34.300Z,5.22
2017-05-29T07:59:02.675Z,4.88
2017-05-29T08:01:31.053Z,4.60
2017-05-29T08:03:59.474Z,4.82
2017-05-29T08:06:27.806Z,4.98
2017-05-29T08:08:56.254Z,4.68
2017-05-29T08:11:25.518Z,4.12
2017-05-29T08:13:55.073Z,4.50
2017-05-29T08:16:23.472Z,5.16
2017-05-29T08:18:51.087Z,4.74
2017-05-29T08:21:20.403Z,4.68
2017-05-29T08:23:48.800Z,4.74
2017-05-29T08:26:17.124Z,4.88
2017-05-29T08:28:44.738Z,4.78
2017-05-29T08:31:13.068Z,4.48
2017-05-29T08:33:41.463Z,3.98
2017-05-29T08:36:09.890Z,4.50
2017-05-29T08:38:38.241Z,4.40
2017-05-29T08:41:06.603Z,3.72
2017-05-29T08:43:34.942Z,4.06
2017-05-29T08:46:03.296Z,4.62
2017-05-29T08:48:31.639Z,4.20
2017-05-29T08:50:59.280Z,4.78
2017-05-29T08:53:27.044Z,5.36
2017-05-29T08:55:55.542Z,4.90
2017-05-29T08:58:23.988Z,4.24
2017-05-29T09:00:52.372Z,4.55
2017-05-29T09:03:20.007Z,4.78
2017-05-29T09:05:48.334Z,4.52
2017-05-29T09:08:16.818Z,4.90
2017-05-29T09:10:45.161Z,4.00
2017-05-29T09:13:13.914Z,4.94
2017-05-29T09:15:42.277Z,4.58
2017-05-29T09:18:10.635Z,4.76
2017-05-29T09:20:39.006Z,4.76
2017-05-29T09:23:07.335Z,4.30
2017-05-29T09:25:35.736Z,4.24
2017-05-29T09:28:04.095Z,4.44
2017-05-29T09:30:32.479Z,5.06
2017-05-29T09:33:00.930Z,4.88
2017-05-29T09:35:29.326Z,4.60
2017-05-29T09:37:57.679Z,4.92
2017-05-29T09:40:26.136Z,5.18
2017-05-29T09:42:54.451Z,4.54
2017-05-29T09:45:22.091Z,4.34
2017-05-29T09:47:50.459Z,4.58
2017-05-29T09:50:18.826Z,5.16
2017-05-29T09:52:47.168Z,4.28
2017-05-29T09:55:15.515Z,4.76
2017-05-29T09:57:43.882Z,3.72
2017-05-29T10:00:12.245Z,4.12
2017-05-29T10:02:40.591Z,4.38
2017-05-29T10:05:09.004Z,4.42
2017-05-29T10:07:40.864Z,4.32
2017-05-29T10:10:09.221Z,4.02
2017-05-29T10:12:36.794Z,4.62
2017-05-29T10:15:05.144Z,4.94
2017-05-29T10:17:33.474Z,4.62
2017-05-29T10:20:01.209Z,4.54
2017-05-29T10:22:29.566Z,4.20
2017-05-29T10:24:57.918Z,4.66
2017-05-29T10:27:26.353Z,5.40
2017-05-29T10:29:54.716Z,4.54
2017-05-29T10:32:23.618Z,4.78
2017-05-29T10:34:51.607Z,4.84
2017-05-29T10:37:20.260Z,5.30
2017-05-29T10:39:49.240Z,5.20
2017-05-29T10:42:17.809Z,4.82
2017-05-29T10:44:46.192Z,4.70
2017-05-29T10:47:14.580Z,5.44
2017-05-29T10:49:42.231Z,5.04
2017-05-29T10:52:09.850Z,4.98
2017-05-29T10:54:37.478Z,5.08
2017-05-29T10:57:05.834Z,4.70
2017-05-29T10:59:34.198Z,4.40
2017-05-29T11:02:02.593Z,4.76
2017-05-29T11:04:30.908Z,4.84
2017-05-29T11:06:59.284Z,4.40
2017-05-29T11:09:27.641Z,4.68
2017-05-29T11:11:55.987Z,4.42
2017-05-29T11:14:24.377Z,5.06
2017-05-29T11:16:52.799Z,5.02
2017-05-29T11:19:21.174Z,5.38
2017-05-29T11:21:49.577Z,5.12
2017-05-29T11:24:17.938Z,5.14
2017-05-29T11:26:46.312Z,5.44
2017-05-29T11:29:14.650Z,4.92
2017-05-29T11:31:43.018Z,5.20
2017-05-29T11:34:10.576Z,5.24
2017-05-29T11:36:38.934Z,4.66
2017-05-29T11:39:07.277Z,4.84
2017-05-29T11:41:35.620Z,7.12
2017-05-29T11:44:03.176Z,5.66
2017-05-29T11:46:31.510Z,6.82
2017-05-29T11:48:59.827Z,7.42
2017-05-29T11:51:28.164Z,5.70
2017-05-29T11:53:56.490Z,4.92
2017-05-29T11:56:24.838Z,5.40
2017-05-29T11:58:52.382Z,4.68
2017-05-29T12:01:20.247Z,5.64
2017-05-29T12:03:48.565Z,5.20
2017-05-29T12:06:16.883Z,5.40
2017-05-29T12:08:44.487Z,5.84
2017-05-29T12:11:12.793Z,9.46
2017-05-29T12:13:41.349Z,11.34
2017-05-29T12:16:09.843Z,9.64
2017-05-29T12:18:38.310Z,8.74
2017-05-29T12:21:06.829Z,9.34
2017-05-29T12:23:35.383Z,11.76
2017-05-29T12:26:03.696Z,9.84
2017-05-29T12:28:32.071Z,21.00
2017-05-29T12:31:00.411Z,14.76
2017-05-29T12:33:28.732Z,8.80
2017-05-29T12:35:57.050Z,7.30
2017-05-29T12:38:25.389Z,6.44
2017-05-29T12:40:53.746Z,12.70
2017-05-29T12:43:21.324Z,6.64
2017-05-29T12:45:49.931Z,5.52
2017-05-29T12:48:18.994Z,5.88
2017-05-29T12:50:47.549Z,5.50
2017-05-29T12:53:15.134Z,5.20
2017-05-29T12:55:43.452Z,5.10
2017-05-29T12:58:11.059Z,5.60
2017-05-29T13:00:38.604Z,5.10
2017-05-29T13:03:06.948Z,4.76
2017-05-29T13:05:35.261Z,4.90
2017-05-29T13:08:03.619Z,4.78
2017-05-29T13:10:31.954Z,4.70
2017-05-29T13:13:00.280Z,4.54
2017-05-29T13:15:28.600Z,4.80
2017-05-29T13:17:56.950Z,5.46
2017-05-29T13:20:25.286Z,4.36
2017-05-29T13:22:53.634Z,4.80
2017-05-29T13:25:21.939Z,4.58
2017-05-29T13:27:50.498Z,4.78
2017-05-29T13:30:18.824Z,4.96
2017-05-29T13:32:47.158Z,4.50
2017-05-29T13:35:14.748Z,4.68
2017-05-29T13:37:43.125Z,4.32
2017-05-29T13:40:11.483Z,4.96
2017-05-29T13:42:39.798Z,4.66
2017-05-29T13:45:08.180Z,5.22
2017-05-29T13:47:36.512Z,4.82
2017-05-29T13:50:04.872Z,4.40
2017-05-29T13:52:33.182Z,4.16
2017-05-29T13:55:00.824Z,4.40
2017-05-29T13:57:29.142Z,4.42
2017-05-29T13:59:56.720Z,4.44
2017-05-29T14:02:25.843Z,4.12
2017-05-29T14:04:54.286Z,4.28
2017-05-29T14:07:22.664Z,4.28
2017-05-29T14:09:51.084Z,4.92
2017-05-29T14:12:19.439Z,4.22
2017-05-29T14:14:47.804Z,4.32
2017-05-29T14:17:16.231Z,4.50
2017-05-29T14:19:44.607Z,4.36
2017-05-29T14:22:13.080Z,4.70
2017-05-29T14:24:41.530Z,4.68
2017-05-29T14:27:09.894Z,4.12
2017-05-29T14:29:38.286Z,4.24
2017-05-29T14:32:06.624Z,4.46
2017-05-29T14:34:35.026Z,4.04
2017-05-29T14:37:03.363Z,5.12
2017-05-29T14:39:31.703Z,4.28
2017-05-29T14:42:00.056Z,4.70
2017-05-29T14:44:28.403Z,4.62
2017-05-29T14:46:56.729Z,4.60
2017-05-29T14:49:25.233Z,4.50
2017-05-29T14:51:53.612Z,4.42
2017-05-29T14:54:23.290Z,3.96
2017-05-29T14:56:51.732Z,4.44
2017-05-29T14:59:20.058Z,4.52
2017-05-29T15:01:48.452Z,4.52
2017-05-29T15:04:16.931Z,4.48
2017-05-29T15:06:45.330Z,4.86
2017-05-29T15:09:17.339Z,4.46
2017-05-29T15:11:47.620Z,4.40
2017-05-29T15:14:16.575Z,4.28
2017-05-29T15:16:48.776Z,4.34
2017-05-29T15:19:21.775Z,4.00
2017-05-29T15:39:21.500Z,4.42
2017-05-29T15:45:02.405Z,5.22
2017-05-29T15:47:46.164Z,4.18
2017-05-29T15:50:28.171Z,4.34
2017-05-29T15:53:07.353Z,4.06
2017-05-29T15:55:36.746Z,4.06
2017-05-29T15:58:13.233Z,4.30
2017-05-29T16:00:44.738Z,4.38
2017-05-29T16:03:18.073Z,5.22
2017-05-29T16:57:02.892Z,4.54
2017-05-29T17:26:09.012Z,6.22
2017-05-29T17:28:37.890Z,4.72
2017-05-29T17:31:06.386Z,5.48
2017-05-29T17:33:34.088Z,5.20
2017-05-29T17:38:39.973Z,5.12
2017-05-29T17:41:08.487Z,6.02
2017-05-29T17:43:42.725Z,6.38
2017-05-29T17:46:11.095Z,5.38
2017-05-29T17:48:38.709Z,6.14
2017-05-29T17:51:07.082Z,6.40
2017-05-29T17:53:35.530Z,6.08
2017-05-29T17:56:04.001Z,7.00
2017-05-29T17:58:32.708Z,7.32
2017-05-29T18:01:00.360Z,5.46
2017-05-29T18:03:27.958Z,6.74
2017-05-29T18:05:58.227Z,6.40
2017-05-29T18:08:26.553Z,6.70
2017-05-29T18:10:55.944Z,7.72
2017-05-29T18:13:24.623Z,6.86
2017-05-29T18:15:52.958Z,6.88
2017-05-29T18:18:21.326Z,7.38
2017-05-29T18:20:50.031Z,8.00
2017-05-29T18:23:18.378Z,8.32
2017-05-29T18:25:47.391Z,8.48
2017-05-29T18:28:16.051Z,7.96
2017-05-29T18:33:49.046Z,9.16
2017-05-29T18:36:23.181Z,6.90
2017-05-29T18:41:46.166Z,8.22
2017-05-29T18:44:24.566Z,7.72
2017-05-29T18:46:53.042Z,6.90
2017-05-29T18:49:43.974Z,7.70
2017-05-29T18:55:21.287Z,7.60
2017-05-29T18:57:49.865Z,9.38
2017-05-29T19:00:18.291Z,7.70
2017-05-29T19:02:58.380Z,9.90
2017-05-29T19:05:39.907Z,11.56
2017-05-29T19:10:48.068Z,11.40
2017-05-29T19:13:16.507Z,13.04
2017-05-29T19:15:44.903Z,17.74
2017-05-29T19:18:13.315Z,24.76
2017-05-29T19:20:41.709Z,14.54
2017-05-29T19:23:22.596Z,12.42
2017-05-29T19:28:50.118Z,10.40
2017-05-29T19:31:18.562Z,12.58
2017-05-29T19:33:46.164Z,11.98
2017-05-29T19:36:14.595Z,15.50
2017-05-29T19:38:42.967Z,16.18
2017-05-29T19:41:11.406Z,14.74
2017-05-29T19:46:35.746Z,11.10
2017-05-29T19:49:04.191Z,11.32
2017-05-29T19:51:31.843Z,12.68
2017-05-29T19:53:59.449Z,12.02
2017-05-29T19:56:27.903Z,10.86
2017-05-29T19:58:56.373Z,11.06
2017-05-29T20:01:24.018Z,11.40
2017-05-29T20:03:52.457Z,11.92
2017-05-29T20:06:20.892Z,11.20
2017-05-29T20:08:50.419Z,11.60
2017-05-29T20:11:18.031Z,11.50
2017-05-29T20:13:46.387Z,12.08
2017-05-29T20:16:14.861Z,11.52
2017-05-29T20:18:43.213Z,12.40
2017-05-29T20:21:12.554Z,11.20
2017-05-29T20:23:40.971Z,11.60
2017-05-29T20:26:09.486Z,11.56
2017-05-29T20:28:37.842Z,11.38
2017-05-29T20:31:06.265Z,12.30
2017-05-29T20:33:34.679Z,11.92
2017-05-29T20:36:03.077Z,12.52
2017-05-29T20:38:31.488Z,11.60
2017-05-29T20:40:59.136Z,11.84
2017-05-29T20:43:27.494Z,11.28
2017-05-29T20:45:55.885Z,10.78
2017-05-29T20:48:24.298Z,11.80
2017-05-29T20:50:52.377Z,11.54
2017-05-29T20:53:20.956Z,10.96
2017-05-29T20:55:49.300Z,10.94
2017-05-29T20:58:17.694Z,10.00
2017-05-29T21:00:46.068Z,10.82
2017-05-29T21:03:14.454Z,9.72
2017-05-29T21:05:42.887Z,12.16
2017-05-29T21:08:11.308Z,12.40
2017-05-29T21:10:38.885Z,11.36
2017-05-29T21:13:07.263Z,12.52
2017-05-29T21:15:35.612Z,11.24
2017-05-29T21:18:03.995Z,10.48
2017-05-29T21:20:32.413Z,11.02
2017-05-29T21:26:10.303Z,11.42
2017-05-29T21:28:38.688Z,11.12
2017-05-29T21:31:06.322Z,10.12
2017-05-29T21:33:34.747Z,13.26
2017-05-29T21:36:03.108Z,11.62
2017-05-29T21:38:31.461Z,10.76
2017-05-29T21:40:59.832Z,10.86
2017-05-29T21:43:28.271Z,10.82
2017-05-29T21:45:56.684Z,10.52
2017-05-29T21:48:25.085Z,11.76
2017-05-29T21:50:53.455Z,11.78
2017-05-29T21:53:21.052Z,12.76
2017-05-29T21:55:49.382Z,10.38
2017-05-29T21:58:17.736Z,10.10
2017-05-29T22:00:46.088Z,10.14
2017-05-29T22:03:14.458Z,10.58
2017-05-29T22:05:42.773Z,10.22
2017-05-29T22:08:11.129Z,10.42
2017-05-29T22:10:39.454Z,12.04
2017-05-29T22:13:07.810Z,10.18
2017-05-29T22:15:36.135Z,10.42
2017-05-29T22:18:04.474Z,9.72
2017-05-29T22:20:32.789Z,9.54
2017-05-29T22:23:01.143Z,10.02
2017-05-29T22:25:29.572Z,10.30
2017-05-29T22:27:58.015Z,14.22
2017-05-29T22:30:26.407Z,10.40
2017-05-29T22:32:54.745Z,10.00
2017-05-29T22:35:23.052Z,11.76
2017-05-29T22:37:51.841Z,9.90
2017-05-29T22:40:20.184Z,10.66
2017-05-29T22:42:48.604Z,10.92
2017-05-29T22:45:16.965Z,11.70
2017-05-29T22:47:45.277Z,11.96
2017-05-29T22:50:17.235Z,10.84
2017-05-29T22:52:46.922Z,11.22
2017-05-29T22:58:05.995Z,10.40
2017-05-29T23:03:33.343Z,11.22
2017-05-29T23:06:16.414Z,11.44
2017-05-29T23:08:55.945Z,10.34
2017-05-29T23:11:48.597Z,11.82
2017-05-29T23:17:28.087Z,12.42
2017-05-29T23:19:55.826Z,11.62
2017-05-29T23:22:23.392Z,11.06
2017-05-29T23:24:50.988Z,10.76
2017-05-29T23:27:19.319Z,11.12
2017-05-29T23:29:46.909Z,11.78
2017-05-29T23:32:15.256Z,11.48
2017-05-29T23:34:43.650Z,12.32
2017-05-29T23:37:12.007Z,11.62
2017-05-29T23:39:40.359Z,10.76
2017-05-29T23:42:08.691Z,11.58
2017-05-29T23:44:37.057Z,10.54
2017-05-29T23:47:05.409Z,12.56
2017-05-29T23:49:33.773Z,11.76
2017-05-29T23:52:01.348Z,11.76
2017-05-29T23:54:28.982Z,12.24
2017-05-29T23:56:57.311Z,12.50
2017-05-29T23:59:25.765Z,12.60
